sensor_id;sensor_type;location;lat;lon;timestamp;pressure;altitude;pressure_sealevel;temperature;humidity
72689;BME280;61053;52.166;4.506;2022-09-09T00:04:41;100714.31;;;16.32;79.78
72689;BME280;61053;52.166;4.506;2022-09-09T00:13:20;100715.78;;;16.54;79.58
72689;BME280;61053;52.166;4.506;2022-09-09T00:19:04;100709.25;;;16.29;80.36
72689;BME280;61053;52.166;4.506;2022-09-09T00:22:14;100712.75;;;16.39;80.32
72689;BME280;61053;52.166;4.506;2022-09-09T00:24:42;100708.69;;;16.53;79.51
72689;BME280;61053;52.166;4.506;2022-09-09T00:27:27;100710.19;;;16.37;80.55
72689;BME280;61053;52.166;4.506;2022-09-09T00:30:14;100712.78;;;16.29;79.90
72689;BME280;61053;52.166;4.506;2022-09-09T00:32:45;100708.59;;;16.17;81.21
72689;BME280;61053;52.166;4.506;2022-09-09T00:35:48;100712.91;;;16.37;80.13
72689;BME280;61053;52.166;4.506;2022-09-09T00:38:31;100709.81;;;16.32;80.20
72689;BME280;61053;52.166;4.506;2022-09-09T00:41:22;100706.69;;;16.27;80.55
72689;BME280;61053;52.166;4.506;2022-09-09T00:44:33;100708.53;;;16.27;80.64
72689;BME280;61053;52.166;4.506;2022-09-09T00:59:59;100697.44;;;16.02;81.94
72689;BME280;61053;52.166;4.506;2022-09-09T01:02:38;100700.84;;;16.04;82.23
72689;BME280;61053;52.166;4.506;2022-09-09T01:05:12;100704.00;;;15.80;83.46
72689;BME280;61053;52.166;4.506;2022-09-09T01:07:57;100702.44;;;15.87;83.02
72689;BME280;61053;52.166;4.506;2022-09-09T01:10:49;100695.66;;;15.83;83.00
72689;BME280;61053;52.166;4.506;2022-09-09T01:13:44;100699.91;;;15.56;84.14
72689;BME280;61053;52.166;4.506;2022-09-09T01:16:13;100698.38;;;15.73;83.77
72689;BME280;61053;52.166;4.506;2022-09-09T01:18:46;100700.19;;;15.82;82.52
72689;BME280;61053;52.166;4.506;2022-09-09T01:21:41;100694.31;;;16.07;82.20
72689;BME280;61053;52.166;4.506;2022-09-09T01:24:33;100695.84;;;16.09;81.92
72689;BME280;61053;52.166;4.506;2022-09-09T01:27:11;100690.47;;;16.09;82.29
72689;BME280;61053;52.166;4.506;2022-09-09T01:29:54;100692.75;;;16.04;81.96
72689;BME280;61053;52.166;4.506;2022-09-09T01:32:41;100692.53;;;15.88;82.68
72689;BME280;61053;52.166;4.506;2022-09-09T01:35:29;100680.13;;;16.04;82.38
72689;BME280;61053;52.166;4.506;2022-09-09T01:38:04;100681.84;;;15.96;82.46
72689;BME280;61053;52.166;4.506;2022-09-09T01:40:31;100678.53;;;16.12;81.71
72689;BME280;61053;52.166;4.506;2022-09-09T01:42:57;100668.78;;;16.01;81.50
72689;BME280;61053;52.166;4.506;2022-09-09T01:45:23;100670.47;;;16.12;81.77
72689;BME280;61053;52.166;4.506;2022-09-09T01:47:51;100666.53;;;16.06;81.42
72689;BME280;61053;52.166;4.506;2022-09-09T01:50:19;100666.00;;;15.93;82.45
72689;BME280;61053;52.166;4.506;2022-09-09T01:52:52;100661.69;;;16.10;81.63
72689;BME280;61053;52.166;4.506;2022-09-09T01:55:30;100663.84;;;16.06;81.34
72689;BME280;61053;52.166;4.506;2022-09-09T01:58:34;100660.44;;;16.04;81.17
72689;BME280;61053;52.166;4.506;2022-09-09T02:01:19;100664.09;;;16.03;81.36
72689;BME280;61053;52.166;4.506;2022-09-09T02:03:57;100655.59;;;16.08;81.04
72689;BME280;61053;52.166;4.506;2022-09-09T02:06:30;100653.59;;;16.10;80.74
72689;BME280;61053;52.166;4.506;2022-09-09T02:09:04;100659.53;;;16.13;80.81
72689;BME280;61053;52.166;4.506;2022-09-09T02:11:33;100655.19;;;16.02;81.44
72689;BME280;61053;52.166;4.506;2022-09-09T02:14:12;100646.78;;;16.06;81.05
72689;BME280;61053;52.166;4.506;2022-09-09T02:16:59;100647.19;;;16.11;80.93
72689;BME280;61053;52.166;4.506;2022-09-09T02:19:44;100646.91;;;15.76;82.28
72689;BME280;61053;52.166;4.506;2022-09-09T02:22:16;100655.00;;;15.76;82.01
72689;BME280;61053;52.166;4.506;2022-09-09T02:24:47;100651.03;;;15.80;81.86
72689;BME280;61053;52.166;4.506;2022-09-09T02:27:18;100646.94;;;15.47;82.90
72689;BME280;61053;52.166;4.506;2022-09-09T02:29:46;100649.03;;;15.73;82.56
72689;BME280;61053;52.166;4.506;2022-09-09T02:32:17;100638.81;;;15.86;81.31
72689;BME280;61053;52.166;4.506;2022-09-09T02:34:47;100636.13;;;15.86;81.30
72689;BME280;61053;52.166;4.506;2022-09-09T02:37:22;100628.06;;;15.76;82.12
72689;BME280;61053;52.166;4.506;2022-09-09T02:39:54;100624.09;;;15.80;81.82
72689;BME280;61053;52.166;4.506;2022-09-09T02:42:20;100625.91;;;15.90;81.00
72689;BME280;61053;52.166;4.506;2022-09-09T02:44:46;100627.91;;;15.78;81.23
72689;BME280;61053;52.166;4.506;2022-09-09T02:47:21;100630.38;;;15.71;82.03
72689;BME280;61053;52.166;4.506;2022-09-09T02:50:17;100624.91;;;15.34;83.06
72689;BME280;61053;52.166;4.506;2022-09-09T02:58:25;100629.72;;;15.30;83.60
72689;BME280;61053;52.166;4.506;2022-09-09T03:00:54;100631.94;;;15.45;82.18
72689;BME280;61053;52.166;4.506;2022-09-09T03:03:23;100624.16;;;15.51;82.13
72689;BME280;61053;52.166;4.506;2022-09-09T03:05:49;100629.97;;;15.47;82.10
72689;BME280;61053;52.166;4.506;2022-09-09T03:08:15;100632.66;;;15.47;82.19
72689;BME280;61053;52.166;4.506;2022-09-09T03:10:41;100632.34;;;15.59;81.98
72689;BME280;61053;52.166;4.506;2022-09-09T03:13:06;100632.06;;;15.62;81.08
72689;BME280;61053;52.166;4.506;2022-09-09T03:15:33;100625.13;;;15.60;81.27
72689;BME280;61053;52.166;4.506;2022-09-09T03:18:00;100630.34;;;15.61;80.97
72689;BME280;61053;52.166;4.506;2022-09-09T03:20:27;100619.03;;;15.58;81.52
72689;BME280;61053;52.166;4.506;2022-09-09T03:22:54;100615.91;;;15.62;81.01
72689;BME280;61053;52.166;4.506;2022-09-09T03:25:22;100620.00;;;15.67;80.68
72689;BME280;61053;52.166;4.506;2022-09-09T03:27:49;100624.50;;;15.66;80.68
72689;BME280;61053;52.166;4.506;2022-09-09T03:30:24;100616.38;;;15.48;81.54
72689;BME280;61053;52.166;4.506;2022-09-09T03:32:51;100616.34;;;15.58;81.09
72689;BME280;61053;52.166;4.506;2022-09-09T03:35:17;100617.09;;;15.40;81.66
72689;BME280;61053;52.166;4.506;2022-09-09T03:37:43;100611.81;;;15.49;81.47
72689;BME280;61053;52.166;4.506;2022-09-09T03:40:09;100597.34;;;15.59;80.74
72689;BME280;61053;52.166;4.506;2022-09-09T03:42:37;100596.66;;;15.57;81.12
72689;BME280;61053;52.166;4.506;2022-09-09T03:45:04;100609.94;;;15.59;80.68
72689;BME280;61053;52.166;4.506;2022-09-09T03:47:31;100600.72;;;15.61;80.95
72689;BME280;61053;52.166;4.506;2022-09-09T03:49:57;100604.94;;;15.36;80.92
72689;BME280;61053;52.166;4.506;2022-09-09T03:52:22;100602.06;;;15.48;81.15
72689;BME280;61053;52.166;4.506;2022-09-09T03:54:50;100603.50;;;15.32;81.71
72689;BME280;61053;52.166;4.506;2022-09-09T03:57:16;100602.66;;;15.32;82.18
72689;BME280;61053;52.166;4.506;2022-09-09T03:59:42;100599.81;;;15.43;81.05
72689;BME280;61053;52.166;4.506;2022-09-09T04:02:08;100606.00;;;15.53;80.78
72689;BME280;61053;52.166;4.506;2022-09-09T04:04:34;100601.97;;;15.30;82.04
72689;BME280;61053;52.166;4.506;2022-09-09T04:07:01;100602.00;;;15.10;82.73
72689;BME280;61053;52.166;4.506;2022-09-09T04:09:27;100598.25;;;15.31;81.95
72689;BME280;61053;52.166;4.506;2022-09-09T04:11:55;100589.75;;;15.35;81.42
72689;BME280;61053;52.166;4.506;2022-09-09T04:14:21;100585.03;;;15.47;81.07
72689;BME280;61053;52.166;4.506;2022-09-09T04:16:47;100581.50;;;15.47;81.17
72689;BME280;61053;52.166;4.506;2022-09-09T04:19:12;100584.72;;;15.13;82.55
72689;BME280;61053;52.166;4.506;2022-09-09T04:21:41;100582.31;;;15.19;82.05
72689;BME280;61053;52.166;4.506;2022-09-09T04:24:07;100575.75;;;15.32;81.47
72689;BME280;61053;52.166;4.506;2022-09-09T04:26:34;100573.19;;;15.30;81.72
72689;BME280;61053;52.166;4.506;2022-09-09T04:29:02;100566.81;;;15.41;81.01
72689;BME280;61053;52.166;4.506;2022-09-09T04:31:29;100570.56;;;14.82;83.44
72689;BME280;61053;52.166;4.506;2022-09-09T04:33:54;100570.81;;;15.27;81.80
72689;BME280;61053;52.166;4.506;2022-09-09T04:36:20;100575.97;;;15.01;83.16
72689;BME280;61053;52.166;4.506;2022-09-09T04:38:46;100572.13;;;14.84;83.68
72689;BME280;61053;52.166;4.506;2022-09-09T04:41:14;100584.25;;;15.27;81.65
72689;BME280;61053;52.166;4.506;2022-09-09T04:43:42;100562.81;;;14.78;83.60
72689;BME280;61053;52.166;4.506;2022-09-09T04:46:08;100562.25;;;14.94;83.66
72689;BME280;61053;52.166;4.506;2022-09-09T04:48:34;100565.28;;;15.19;81.89
72689;BME280;61053;52.166;4.506;2022-09-09T04:51:06;100569.69;;;15.20;81.96
72689;BME280;61053;52.166;4.506;2022-09-09T04:53:36;100569.16;;;15.07;82.70
72689;BME280;61053;52.166;4.506;2022-09-09T04:56:07;100565.25;;;15.29;81.72
72689;BME280;61053;52.166;4.506;2022-09-09T04:58:38;100555.06;;;15.32;81.25
72689;BME280;61053;52.166;4.506;2022-09-09T05:01:08;100563.44;;;15.29;81.49
72689;BME280;61053;52.166;4.506;2022-09-09T05:03:38;100560.28;;;15.44;80.83
72689;BME280;61053;52.166;4.506;2022-09-09T05:06:05;100564.59;;;15.17;82.04
72689;BME280;61053;52.166;4.506;2022-09-09T05:08:31;100561.63;;;15.01;82.10
72689;BME280;61053;52.166;4.506;2022-09-09T05:10:58;100563.31;;;15.21;81.24
72689;BME280;61053;52.166;4.506;2022-09-09T05:13:25;100554.66;;;15.27;81.54
72689;BME280;61053;52.166;4.506;2022-09-09T05:15:54;100558.06;;;15.29;80.98
72689;BME280;61053;52.166;4.506;2022-09-09T05:18:26;100560.25;;;14.96;82.33
72689;BME280;61053;52.166;4.506;2022-09-09T05:20:51;100561.22;;;15.05;82.28
72689;BME280;61053;52.166;4.506;2022-09-09T05:23:20;100561.91;;;15.27;81.02
72689;BME280;61053;52.166;4.506;2022-09-09T05:25:59;100554.84;;;15.16;81.51
72689;BME280;61053;52.166;4.506;2022-09-09T05:28:25;100558.19;;;15.28;80.69
72689;BME280;61053;52.166;4.506;2022-09-09T05:30:59;100550.50;;;14.76;83.10
72689;BME280;61053;52.166;4.506;2022-09-09T05:33:26;100556.84;;;15.04;81.92
72689;BME280;61053;52.166;4.506;2022-09-09T05:36:01;100552.72;;;15.19;81.10
72689;BME280;61053;52.166;4.506;2022-09-09T05:38:32;100551.84;;;15.19;81.87
72689;BME280;61053;52.166;4.506;2022-09-09T05:40:58;100550.88;;;15.20;81.72
72689;BME280;61053;52.166;4.506;2022-09-09T05:43:26;100547.00;;;15.32;81.46
72689;BME280;61053;52.166;4.506;2022-09-09T05:46:09;100544.50;;;15.58;80.29
72689;BME280;61053;52.166;4.506;2022-09-09T05:48:41;100557.66;;;15.24;81.91
72689;BME280;61053;52.166;4.506;2022-09-09T05:51:10;100546.34;;;15.58;81.10
72689;BME280;61053;52.166;4.506;2022-09-09T05:53:38;100549.59;;;15.71;80.47
72689;BME280;61053;52.166;4.506;2022-09-09T05:58:34;100556.72;;;15.53;80.96
72689;BME280;61053;52.166;4.506;2022-09-09T06:01:02;100564.63;;;15.54;80.74
72689;BME280;61053;52.166;4.506;2022-09-09T06:03:28;100579.69;;;15.37;81.58
72689;BME280;61053;52.166;4.506;2022-09-09T06:06:00;100569.78;;;15.48;80.69
72689;BME280;61053;52.166;4.506;2022-09-09T06:08:27;100574.41;;;15.55;81.25
72689;BME280;61053;52.166;4.506;2022-09-09T06:10:53;100568.91;;;15.47;81.43
72689;BME280;61053;52.166;4.506;2022-09-09T06:13:18;100568.34;;;15.44;81.78
72689;BME280;61053;52.166;4.506;2022-09-09T06:15:51;100567.53;;;15.80;80.50
72689;BME280;61053;52.166;4.506;2022-09-09T06:18:18;100560.78;;;15.94;80.14
72689;BME280;61053;52.166;4.506;2022-09-09T06:21:02;100566.16;;;15.67;81.57
72689;BME280;61053;52.166;4.506;2022-09-09T06:23:30;100566.16;;;15.94;80.27
72689;BME280;61053;52.166;4.506;2022-09-09T06:26:12;100563.91;;;15.99;79.94
72689;BME280;61053;52.166;4.506;2022-09-09T06:28:40;100564.34;;;15.95;80.16
72689;BME280;61053;52.166;4.506;2022-09-09T06:31:10;100575.63;;;15.80;80.68
72689;BME280;61053;52.166;4.506;2022-09-09T06:33:38;100564.63;;;15.92;80.69
72689;BME280;61053;52.166;4.506;2022-09-09T06:36:11;100576.31;;;16.10;79.08
72689;BME280;61053;52.166;4.506;2022-09-09T06:38:39;100571.81;;;16.01;79.67
72689;BME280;61053;52.166;4.506;2022-09-09T06:41:04;100579.81;;;15.93;80.06
72689;BME280;61053;52.166;4.506;2022-09-09T06:43:31;100564.69;;;16.10;79.94
72689;BME280;61053;52.166;4.506;2022-09-09T06:45:58;100570.56;;;16.23;79.02
72689;BME280;61053;52.166;4.506;2022-09-09T06:48:25;100570.19;;;16.18;79.43
72689;BME280;61053;52.166;4.506;2022-09-09T06:51:17;100573.97;;;16.61;77.90
72689;BME280;61053;52.166;4.506;2022-09-09T06:53:53;100562.91;;;16.46;77.51
72689;BME280;61053;52.166;4.506;2022-09-09T06:56:31;100568.03;;;16.57;76.95
72689;BME280;61053;52.166;4.506;2022-09-09T06:59:00;100568.31;;;16.18;77.85
72689;BME280;61053;52.166;4.506;2022-09-09T07:01:32;100576.03;;;16.31;78.11
72689;BME280;61053;52.166;4.506;2022-09-09T07:03:59;100572.00;;;16.17;78.62
72689;BME280;61053;52.166;4.506;2022-09-09T07:06:33;100574.69;;;15.99;79.74
72689;BME280;61053;52.166;4.506;2022-09-09T07:09:05;100571.94;;;16.09;79.17
72689;BME280;61053;52.166;4.506;2022-09-09T07:11:40;100573.13;;;15.97;79.25
72689;BME280;61053;52.166;4.506;2022-09-09T07:14:08;100566.72;;;16.25;78.54
72689;BME280;61053;52.166;4.506;2022-09-09T07:16:34;100570.28;;;16.44;77.53
72689;BME280;61053;52.166;4.506;2022-09-09T07:19:03;100566.50;;;16.55;77.24
72689;BME280;61053;52.166;4.506;2022-09-09T07:21:30;100568.50;;;16.53;77.24
72689;BME280;61053;52.166;4.506;2022-09-09T07:24:00;100568.28;;;16.64;76.73
72689;BME280;61053;52.166;4.506;2022-09-09T07:26:29;100563.38;;;16.95;75.66
72689;BME280;61053;52.166;4.506;2022-09-09T07:28:57;100564.28;;;16.68;77.30
72689;BME280;61053;52.166;4.506;2022-09-09T07:31:27;100568.56;;;16.43;78.01
72689;BME280;61053;52.166;4.506;2022-09-09T07:33:53;100565.66;;;16.54;76.87
72689;BME280;61053;52.166;4.506;2022-09-09T07:36:24;100568.34;;;16.54;77.69
72689;BME280;61053;52.166;4.506;2022-09-09T07:38:53;100567.22;;;16.39;77.93
72689;BME280;61053;52.166;4.506;2022-09-09T07:44:23;100575.50;;;16.45;77.33
72689;BME280;61053;52.166;4.506;2022-09-09T07:46:52;100564.09;;;16.16;78.17
72689;BME280;61053;52.166;4.506;2022-09-09T07:49:18;100568.81;;;16.50;77.30
72689;BME280;61053;52.166;4.506;2022-09-09T07:51:45;100574.59;;;16.37;77.66
72689;BME280;61053;52.166;4.506;2022-09-09T07:54:14;100573.72;;;16.36;77.34
72689;BME280;61053;52.166;4.506;2022-09-09T07:56:42;100572.53;;;16.49;77.36
72689;BME280;61053;52.166;4.506;2022-09-09T07:59:08;100573.81;;;16.44;77.42
72689;BME280;61053;52.166;4.506;2022-09-09T08:01:40;100575.00;;;16.14;78.60
72689;BME280;61053;52.166;4.506;2022-09-09T08:04:10;100575.03;;;16.50;78.00
72689;BME280;61053;52.166;4.506;2022-09-09T08:06:47;100581.31;;;16.51;77.63
72689;BME280;61053;52.166;4.506;2022-09-09T08:09:18;100577.63;;;16.24;77.92
72689;BME280;61053;52.166;4.506;2022-09-09T08:11:45;100575.25;;;16.21;78.60
72689;BME280;61053;52.166;4.506;2022-09-09T08:14:11;100567.03;;;16.22;78.74
72689;BME280;61053;52.166;4.506;2022-09-09T08:16:40;100575.13;;;16.58;76.89
72689;BME280;61053;52.166;4.506;2022-09-09T08:19:09;100582.09;;;16.79;76.55
72689;BME280;61053;52.166;4.506;2022-09-09T08:21:36;100571.38;;;16.51;77.60
72689;BME280;61053;52.166;4.506;2022-09-09T08:24:05;100570.69;;;16.85;76.17
72689;BME280;61053;52.166;4.506;2022-09-09T08:26:35;100572.59;;;16.75;76.85
72689;BME280;61053;52.166;4.506;2022-09-09T08:29:03;100567.13;;;16.84;76.38
72689;BME280;61053;52.166;4.506;2022-09-09T08:31:41;100562.72;;;17.01;75.23
72689;BME280;61053;52.166;4.506;2022-09-09T08:34:09;100568.66;;;17.05;75.71
72689;BME280;61053;52.166;4.506;2022-09-09T08:36:40;100560.41;;;16.71;76.34
72689;BME280;61053;52.166;4.506;2022-09-09T08:39:09;100572.53;;;17.02;76.09
72689;BME280;61053;52.166;4.506;2022-09-09T08:47:58;100565.59;;;17.00;75.43
72689;BME280;61053;52.166;4.506;2022-09-09T08:50:38;100567.53;;;17.16;74.96
72689;BME280;61053;52.166;4.506;2022-09-09T08:53:19;100576.31;;;17.18;74.68
72689;BME280;61053;52.166;4.506;2022-09-09T08:56:01;100574.44;;;16.92;76.09
72689;BME280;61053;52.166;4.506;2022-09-09T08:58:34;100571.59;;;16.94;75.68
72689;BME280;61053;52.166;4.506;2022-09-09T09:03:55;100580.81;;;17.09;75.96
72689;BME280;61053;52.166;4.506;2022-09-09T09:09:28;100586.34;;;16.81;77.57
72689;BME280;61053;52.166;4.506;2022-09-09T09:12:19;100580.31;;;16.70;77.99
72689;BME280;61053;52.166;4.506;2022-09-09T09:14:47;100578.31;;;16.90;77.58
72689;BME280;61053;52.166;4.506;2022-09-09T09:17:20;100593.19;;;16.94;77.41
72689;BME280;61053;52.166;4.506;2022-09-09T09:19:49;100594.16;;;16.75;77.57
72689;BME280;61053;52.166;4.506;2022-09-09T09:22:42;100595.34;;;16.90;77.91
72689;BME280;61053;52.166;4.506;2022-09-09T09:25:19;100603.72;;;16.51;80.36
72689;BME280;61053;52.166;4.506;2022-09-09T09:35:52;100586.75;;;16.41;84.08
72689;BME280;61053;52.166;4.506;2022-09-09T09:40:52;100581.00;;;16.72;83.03
72689;BME280;61053;52.166;4.506;2022-09-09T09:43:33;100577.38;;;16.63;84.48
72689;BME280;61053;52.166;4.506;2022-09-09T09:46:04;100573.59;;;16.56;84.04
72689;BME280;61053;52.166;4.506;2022-09-09T09:48:30;100572.84;;;16.81;83.71
72689;BME280;61053;52.166;4.506;2022-09-09T09:51:09;100569.41;;;17.15;81.96
72689;BME280;61053;52.166;4.506;2022-09-09T09:53:38;100570.13;;;17.25;81.35
72689;BME280;61053;52.166;4.506;2022-09-09T09:56:06;100573.22;;;17.30;80.53
72689;BME280;61053;52.166;4.506;2022-09-09T10:01:29;100575.94;;;16.86;82.54
72689;BME280;61053;52.166;4.506;2022-09-09T10:04:18;100576.84;;;16.95;82.95
72689;BME280;61053;52.166;4.506;2022-09-09T10:06:51;100569.06;;;16.92;83.38
72689;BME280;61053;52.166;4.506;2022-09-09T10:12:14;100575.59;;;16.90;82.73
72689;BME280;61053;52.166;4.506;2022-09-09T10:15:07;100571.41;;;17.13;83.36
72689;BME280;61053;52.166;4.506;2022-09-09T10:30:03;100577.06;;;16.66;84.90
72689;BME280;61053;52.166;4.506;2022-09-09T10:38:23;100585.53;;;16.53;84.14
72689;BME280;61053;52.166;4.506;2022-09-09T10:43:51;100586.91;;;16.39;86.02
72689;BME280;61053;52.166;4.506;2022-09-09T10:55:24;100566.97;;;16.50;86.87
72689;BME280;61053;52.166;4.506;2022-09-09T10:57:54;100563.84;;;16.91;85.08
72689;BME280;61053;52.166;4.506;2022-09-09T11:00:31;100570.81;;;17.01;83.65
72689;BME280;61053;52.166;4.506;2022-09-09T11:03:02;100564.28;;;16.86;84.41
72689;BME280;61053;52.166;4.506;2022-09-09T11:08:21;100559.44;;;17.42;81.71
72689;BME280;61053;52.166;4.506;2022-09-09T11:19:03;100560.31;;;17.77;81.54
72689;BME280;61053;52.166;4.506;2022-09-09T11:21:49;100558.84;;;17.82;79.01
72689;BME280;61053;52.166;4.506;2022-09-09T11:24:24;100561.81;;;18.13;78.03
72689;BME280;61053;52.166;4.506;2022-09-09T11:27:08;100555.06;;;18.09;77.64
72689;BME280;61053;52.166;4.506;2022-09-09T11:38:26;100564.19;;;17.40;80.46
72689;BME280;61053;52.166;4.506;2022-09-09T11:41:08;100560.69;;;17.56;80.75
72689;BME280;61053;52.166;4.506;2022-09-09T11:43:49;100560.75;;;17.64;78.66
72689;BME280;61053;52.166;4.506;2022-09-09T11:46:20;100568.13;;;17.27;81.00
72689;BME280;61053;52.166;4.506;2022-09-09T11:49:03;100556.63;;;17.25;81.58
72689;BME280;61053;52.166;4.506;2022-09-09T11:51:32;100570.19;;;17.34;81.69
72689;BME280;61053;52.166;4.506;2022-09-09T11:54:26;100562.53;;;17.21;82.93
72689;BME280;61053;52.166;4.506;2022-09-09T11:57:30;100572.06;;;16.89;84.62
72689;BME280;61053;52.166;4.506;2022-09-09T11:59:59;100574.22;;;16.67;85.55
72689;BME280;61053;52.166;4.506;2022-09-09T12:02:27;100577.34;;;16.45;87.50
72689;BME280;61053;52.166;4.506;2022-09-09T12:07:39;100578.69;;;16.59;87.32
72689;BME280;61053;52.166;4.506;2022-09-09T12:12:53;100569.72;;;16.76;85.42
72689;BME280;61053;52.166;4.506;2022-09-09T12:15:25;100578.53;;;16.96;85.68
72689;BME280;61053;52.166;4.506;2022-09-09T12:17:56;100574.16;;;17.47;84.67
72689;BME280;61053;52.166;4.506;2022-09-09T12:20:34;100582.53;;;17.36;84.55
72689;BME280;61053;52.166;4.506;2022-09-09T12:29:08;100569.13;;;17.52;82.92
72689;BME280;61053;52.166;4.506;2022-09-09T12:32:11;100579.97;;;17.35;84.08
72689;BME280;61053;52.166;4.506;2022-09-09T12:34:47;100584.59;;;17.16;84.49
72689;BME280;61053;52.166;4.506;2022-09-09T12:37:58;100571.94;;;17.17;84.27
72689;BME280;61053;52.166;4.506;2022-09-09T12:40:31;100579.94;;;17.00;84.89
72689;BME280;61053;52.166;4.506;2022-09-09T12:43:00;100575.72;;;17.24;85.56
72689;BME280;61053;52.166;4.506;2022-09-09T12:45:48;100577.56;;;17.23;85.06
72689;BME280;61053;52.166;4.506;2022-09-09T12:48:17;100580.38;;;17.40;84.28
72689;BME280;61053;52.166;4.506;2022-09-09T12:50:55;100588.44;;;17.14;84.06
72689;BME280;61053;52.166;4.506;2022-09-09T12:53:31;100581.91;;;17.16;84.54
72689;BME280;61053;52.166;4.506;2022-09-09T12:56:08;100592.41;;;17.27;84.62
72689;BME280;61053;52.166;4.506;2022-09-09T12:58:45;100595.88;;;17.38;84.00
72689;BME280;61053;52.166;4.506;2022-09-09T13:03:50;100592.22;;;17.47;82.49
72689;BME280;61053;52.166;4.506;2022-09-09T13:06:27;100591.47;;;17.63;83.68
72689;BME280;61053;52.166;4.506;2022-09-09T13:08:56;100588.72;;;17.81;80.67
72689;BME280;61053;52.166;4.506;2022-09-09T13:11:36;100590.59;;;17.54;82.16
72689;BME280;61053;52.166;4.506;2022-09-09T13:14:17;100585.31;;;17.79;82.39
72689;BME280;61053;52.166;4.506;2022-09-09T13:17:01;100581.69;;;17.62;82.51
72689;BME280;61053;52.166;4.506;2022-09-09T13:19:38;100588.81;;;17.71;83.15
72689;BME280;61053;52.166;4.506;2022-09-09T13:25:18;100579.75;;;20.26;73.41
72689;BME280;61053;52.166;4.506;2022-09-09T13:28:04;100580.41;;;19.08;76.99
72689;BME280;61053;52.166;4.506;2022-09-09T13:30:56;100581.69;;;18.63;78.50
72689;BME280;61053;52.166;4.506;2022-09-09T13:33:34;100585.38;;;18.38;81.52
72689;BME280;61053;52.166;4.506;2022-09-09T13:38:37;100588.22;;;18.20;82.28
72689;BME280;61053;52.166;4.506;2022-09-09T13:41:09;100588.97;;;17.69;83.36
72689;BME280;61053;52.166;4.506;2022-09-09T13:43:46;100596.56;;;17.66;83.49
72689;BME280;61053;52.166;4.506;2022-09-09T13:46:35;100590.50;;;17.72;82.86
72689;BME280;61053;52.166;4.506;2022-09-09T13:51:43;100586.59;;;17.66;85.06
72689;BME280;61053;52.166;4.506;2022-09-09T13:54:13;100585.41;;;17.61;85.10
72689;BME280;61053;52.166;4.506;2022-09-09T13:56:42;100587.41;;;17.59;83.34
72689;BME280;61053;52.166;4.506;2022-09-09T13:59:28;100595.81;;;17.56;82.23
72689;BME280;61053;52.166;4.506;2022-09-09T14:01:56;100592.97;;;17.31;83.94
72689;BME280;61053;52.166;4.506;2022-09-09T14:04:23;100594.00;;;17.12;84.59
72689;BME280;61053;52.166;4.506;2022-09-09T14:06:49;100591.81;;;17.16;84.17
72689;BME280;61053;52.166;4.506;2022-09-09T14:09:17;100596.75;;;17.20;82.31
72689;BME280;61053;52.166;4.506;2022-09-09T14:11:44;100600.00;;;17.24;82.20
72689;BME280;61053;52.166;4.506;2022-09-09T14:14:11;100596.66;;;17.30;81.58
72689;BME280;61053;52.166;4.506;2022-09-09T14:16:40;100592.53;;;17.18;81.20
72689;BME280;61053;52.166;4.506;2022-09-09T14:19:07;100590.34;;;16.95;81.29
72689;BME280;61053;52.166;4.506;2022-09-09T14:21:34;100603.28;;;16.92;81.41
72689;BME280;61053;52.166;4.506;2022-09-09T14:23:59;100607.00;;;16.91;81.89
72689;BME280;61053;52.166;4.506;2022-09-09T14:26:25;100605.47;;;16.88;82.88
72689;BME280;61053;52.166;4.506;2022-09-09T14:28:51;100616.91;;;16.90;84.62
72689;BME280;61053;52.166;4.506;2022-09-09T14:31:18;100615.69;;;17.02;83.95
72689;BME280;61053;52.166;4.506;2022-09-09T14:33:44;100610.34;;;17.11;82.25
72689;BME280;61053;52.166;4.506;2022-09-09T14:36:10;100607.31;;;17.14;85.06
72689;BME280;61053;52.166;4.506;2022-09-09T14:38:38;100596.34;;;17.59;84.24
72689;BME280;61053;52.166;4.506;2022-09-09T14:41:07;100593.06;;;18.08;80.92
72689;BME280;61053;52.166;4.506;2022-09-09T14:43:35;100602.84;;;18.01;80.91
72689;BME280;61053;52.166;4.506;2022-09-09T14:46:11;100614.94;;;18.31;80.81
72689;BME280;61053;52.166;4.506;2022-09-09T14:48:38;100617.41;;;18.67;79.99
72689;BME280;61053;52.166;4.506;2022-09-09T14:51:09;100615.94;;;18.97;81.02
72689;BME280;61053;52.166;4.506;2022-09-09T14:53:34;100615.91;;;19.05;79.00
72689;BME280;61053;52.166;4.506;2022-09-09T14:56:08;100615.25;;;19.11;79.19
72689;BME280;61053;52.166;4.506;2022-09-09T14:58:34;100614.91;;;18.82;78.96
72689;BME280;61053;52.166;4.506;2022-09-09T15:01:09;100618.34;;;18.49;78.50
72689;BME280;61053;52.166;4.506;2022-09-09T15:03:40;100608.66;;;18.22;81.19
72689;BME280;61053;52.166;4.506;2022-09-09T15:06:10;100612.00;;;18.08;81.68
72689;BME280;61053;52.166;4.506;2022-09-09T15:08:37;100628.63;;;17.95;82.17
72689;BME280;61053;52.166;4.506;2022-09-09T15:11:06;100638.94;;;17.65;85.05
72689;BME280;61053;52.166;4.506;2022-09-09T15:13:33;100631.97;;;17.63;86.45
72689;BME280;61053;52.166;4.506;2022-09-09T15:16:16;100621.56;;;17.94;84.51
72689;BME280;61053;52.166;4.506;2022-09-09T15:18:44;100620.22;;;17.98;84.66
72689;BME280;61053;52.166;4.506;2022-09-09T15:21:16;100622.94;;;18.06;83.10
72689;BME280;61053;52.166;4.506;2022-09-09T15:23:45;100630.63;;;17.85;82.37
72689;BME280;61053;52.166;4.506;2022-09-09T15:26:12;100631.69;;;17.74;84.06
72689;BME280;61053;52.166;4.506;2022-09-09T15:28:41;100636.16;;;17.57;85.17
72689;BME280;61053;52.166;4.506;2022-09-09T15:31:14;100633.00;;;17.62;87.26
72689;BME280;61053;52.166;4.506;2022-09-09T15:33:58;100627.00;;;17.76;83.95
72689;BME280;61053;52.166;4.506;2022-09-09T15:36:37;100622.13;;;17.80;82.12